Sarahsville, Ohio
Current Conditions -  °F | °C
As of 6:53 AM on Tuesday 21 Oct 2014 (Local Time) from KZZV Reporting Station
Haze Haze  
Wind Chill: 46°   Ceiling: 8000
Heat Index: 48°   Visibility: 2.5mi
Dew Point: 46°   Wind: 5mph
Humidity: 93%   Direction: 240°WSW
Pressure: 29.88"   Gusts: NA
Location:  39.81°N, 81.47°W
Report Text: KZZV 211053Z AUTO 24004KT 2 1/2SM BR FEW003 BKN080 OVC100 09/08 A2988 RMK AO2 SLP119 T00890078
Loading
Personal Weather Stations






























Interactive Weather Map
Tropical Storm Tracking
New forecast layout! Learn more

10-Day Weather Forecast

Advertisements
Track Severe Weather on mobile